createdAt,value
2023-01-29T02:06:43.601Z,75.04
2023-01-29T02:07:44.632Z,75.04
2023-01-29T02:08:44.698Z,75.11
2023-01-29T02:09:44.845Z,75.11
2023-01-29T02:10:44.812Z,75.11
2023-01-29T02:11:44.930Z,74.97
2023-01-29T02:12:44.987Z,74.87
2023-01-29T02:13:45.112Z,74.87
2023-01-29T02:14:45.152Z,74.76
2023-01-29T02:15:45.250Z,74.62
2023-01-29T02:16:45.369Z,74.52
2023-01-29T02:17:45.538Z,74.31
2023-01-29T02:18:45.542Z,74.31
2023-01-29T02:19:45.648Z,74.17
2023-01-29T02:20:45.712Z,74.07
2023-01-29T02:21:45.804Z,73.96
2023-01-29T02:22:45.895Z,73.86
2023-01-29T02:23:46.081Z,73.86
2023-01-29T02:24:46.157Z,73.86
2023-01-29T02:25:46.116Z,73.86
2023-01-29T02:26:46.187Z,73.86
2023-01-29T02:27:46.295Z,73.75
2023-01-29T02:28:46.357Z,73.75
2023-01-29T02:29:46.429Z,73.65
2023-01-29T02:30:46.540Z,73.51
2023-01-29T02:31:46.620Z,73.41
2023-01-29T02:32:46.649Z,73.30
2023-01-29T02:33:46.751Z,73.30
2023-01-29T02:34:46.815Z,73.41
2023-01-29T02:35:46.904Z,73.41
2023-01-29T02:36:46.991Z,73.41
2023-01-29T02:37:47.071Z,73.41
2023-01-29T02:38:47.205Z,73.30
2023-01-29T02:39:47.287Z,73.30
2023-01-29T02:40:47.367Z,73.19
2023-01-29T02:43:02.701Z,73.30
2023-01-29T02:44:03.756Z,73.19
2023-01-29T02:45:03.827Z,73.19
2023-01-29T02:46:03.997Z,73.09
2023-01-29T02:47:04.024Z,73.09
2023-01-29T02:48:04.072Z,72.99
2023-01-29T02:49:04.171Z,72.88
2023-01-29T02:50:04.269Z,72.88
2023-01-29T02:51:04.314Z,72.88
2023-01-29T02:52:04.385Z,72.88
2023-01-29T02:53:04.453Z,72.88
2023-01-29T02:54:04.548Z,72.78
2023-01-29T02:55:04.614Z,72.75
2023-01-29T02:56:04.711Z,72.67
2023-01-29T02:57:04.798Z,72.67
2023-01-29T02:58:04.878Z,72.67
2023-01-29T02:59:04.965Z,72.53
2023-01-29T03:00:05.047Z,72.43
2023-01-29T03:01:05.206Z,72.47
2023-01-29T03:02:05.258Z,72.36
2023-01-29T03:03:05.283Z,72.25
2023-01-29T03:04:05.421Z,72.25
2023-01-29T03:05:05.467Z,72.36
2023-01-29T03:06:05.559Z,72.25
2023-01-29T03:07:05.636Z,72.25
2023-01-29T03:08:05.705Z,72.25
2023-01-29T03:09:05.801Z,72.25
2023-01-29T03:10:05.861Z,72.25
2023-01-29T03:11:05.939Z,72.25
2023-01-29T03:12:06.010Z,72.25
2023-01-29T03:13:06.174Z,72.36
2023-01-29T03:14:06.247Z,72.36
2023-01-29T03:15:06.281Z,72.47
2023-01-29T03:16:06.467Z,72.47
2023-01-29T03:17:06.472Z,72.36
2023-01-29T03:18:06.579Z,72.36
2023-01-29T03:19:06.668Z,72.22
2023-01-29T03:20:06.696Z,72.22
2023-01-29T03:21:06.764Z,72.15
2023-01-29T03:22:06.833Z,72.12
2023-01-29T03:23:06.936Z,72.15
2023-01-29T03:24:07.099Z,72.05
2023-01-29T03:25:07.106Z,72.05
2023-01-29T03:26:07.176Z,72.05
2023-01-29T03:27:07.289Z,72.02
2023-01-29T03:28:07.305Z,71.91
2023-01-29T03:29:07.424Z,71.94
2023-01-29T03:30:07.495Z,72.02
2023-01-29T03:31:07.668Z,72.02
2023-01-29T03:32:07.782Z,72.02
2023-01-29T03:33:07.797Z,72.02
2023-01-29T03:34:07.874Z,72.02
2023-01-29T03:35:07.969Z,71.91
2023-01-29T03:36:08.032Z,72.02
2023-01-29T03:37:08.107Z,72.02
2023-01-29T03:38:08.179Z,72.02
2023-01-29T03:39:08.277Z,72.02
2023-01-29T03:40:08.362Z,72.02
2023-01-29T03:41:08.431Z,72.02
2023-01-29T03:42:08.488Z,71.91
2023-01-29T03:43:08.592Z,71.91
2023-01-29T03:44:08.699Z,71.80
2023-01-29T03:45:08.770Z,71.70
2023-01-29T03:46:08.924Z,71.70
2023-01-29T03:47:08.933Z,71.70
2023-01-29T03:48:09.015Z,71.70
2023-01-29T03:49:09.140Z,71.80
2023-01-29T03:50:09.152Z,71.80
2023-01-29T03:51:09.222Z,71.80
2023-01-29T03:52:09.274Z,71.80
2023-01-29T03:53:09.390Z,71.80
2023-01-29T03:54:09.497Z,71.80
2023-01-29T03:55:09.578Z,71.80
2023-01-29T03:56:09.650Z,71.80
2023-01-29T03:57:09.759Z,71.91
2023-01-29T03:58:09.857Z,71.91
2023-01-29T03:59:09.954Z,71.91
2023-01-29T04:00:10.033Z,71.91
2023-01-29T04:01:10.220Z,71.91
2023-01-29T04:02:10.203Z,71.91
2023-01-29T04:03:10.268Z,71.80
2023-01-29T04:04:10.461Z,71.80
2023-01-29T04:05:10.444Z,71.80
2023-01-29T04:06:10.576Z,71.70
2023-01-29T04:07:10.587Z,71.70
2023-01-29T04:08:10.649Z,71.70
2023-01-29T04:09:10.733Z,71.80
2023-01-29T04:10:10.831Z,71.80
2023-01-29T04:11:10.887Z,71.91
2023-01-29T04:12:10.971Z,71.80
2023-01-29T04:13:11.040Z,71.80
2023-01-29T04:14:11.148Z,71.80
2023-01-29T04:15:11.273Z,71.80
2023-01-29T04:16:11.409Z,71.70
2023-01-29T04:17:11.431Z,71.80
2023-01-29T04:18:11.480Z,71.80
2023-01-29T04:19:11.630Z,71.80
2023-01-29T04:20:11.655Z,71.80
2023-01-29T04:21:11.732Z,71.80
2023-01-29T04:22:11.800Z,71.80
2023-01-29T04:23:11.883Z,71.70
2023-01-29T04:24:12.015Z,71.70
2023-01-29T04:25:12.057Z,71.70
2023-01-29T04:26:12.133Z,71.56
2023-01-29T04:27:12.233Z,71.59
2023-01-29T04:28:16.002Z,71.56
2023-01-29T04:29:12.423Z,71.56
2023-01-29T04:30:12.467Z,71.59
2023-01-29T04:31:12.660Z,71.59
2023-01-29T04:32:12.607Z,71.59
2023-01-29T04:33:12.696Z,71.56
2023-01-29T04:34:12.782Z,71.59
2023-01-29T04:35:12.851Z,71.59
2023-01-29T04:36:12.919Z,71.56
2023-01-29T04:37:13.047Z,71.56
2023-01-29T04:38:13.101Z,71.56
2023-01-29T04:39:13.247Z,71.36
2023-01-29T04:40:13.489Z,71.25
2023-01-29T04:41:13.397Z,71.04
2023-01-29T04:42:13.485Z,71.08
2023-01-29T04:43:13.557Z,71.08
2023-01-29T04:44:13.655Z,71.08
2023-01-29T04:45:13.679Z,71.08
2023-01-29T04:46:13.762Z,71.08
2023-01-29T04:47:13.853Z,71.08
2023-01-29T04:48:13.920Z,70.97
2023-01-29T04:49:14.011Z,70.97
2023-01-29T04:50:14.588Z,70.86
2023-01-29T04:51:14.187Z,70.86
2023-01-29T04:52:14.250Z,70.86
2023-01-29T04:53:14.352Z,70.86
2023-01-29T04:54:14.422Z,70.86
2023-01-29T04:55:14.510Z,70.86
2023-01-29T04:56:14.585Z,70.86
2023-01-29T04:57:14.673Z,70.86
2023-01-29T04:58:14.734Z,70.86
2023-01-29T04:59:14.846Z,70.97
2023-01-29T05:00:15.351Z,70.97
2023-01-29T05:01:15.005Z,70.97
2023-01-29T05:02:15.066Z,70.97
2023-01-29T05:03:15.143Z,70.97
2023-01-29T05:04:15.233Z,70.97
2023-01-29T05:05:15.324Z,70.97
2023-01-29T05:06:15.412Z,71.08
2023-01-29T05:07:15.512Z,71.08
2023-01-29T05:08:15.583Z,71.04
2023-01-29T05:09:15.680Z,71.04
2023-01-29T05:10:16.145Z,71.14
2023-01-29T05:11:15.875Z,71.14
2023-01-29T05:12:15.949Z,71.04
2023-01-29T05:13:16.051Z,71.14
2023-01-29T05:14:16.139Z,71.14
2023-01-29T05:15:16.221Z,71.14
2023-01-29T05:16:16.388Z,71.14
2023-01-29T05:17:16.399Z,71.14
2023-01-29T05:18:16.485Z,71.04
2023-01-29T05:19:16.605Z,71.04
2023-01-29T05:20:17.095Z,71.14
2023-01-29T05:21:16.717Z,71.14
2023-01-29T05:22:16.814Z,71.14
2023-01-29T05:23:16.893Z,71.14
2023-01-29T05:24:17.036Z,71.14
2023-01-29T05:25:17.074Z,71.14
2023-01-29T05:26:17.143Z,71.14
2023-01-29T05:27:17.213Z,71.14
2023-01-29T05:28:17.302Z,71.04
2023-01-29T05:29:17.401Z,71.04
2023-01-29T05:30:17.823Z,71.04
2023-01-29T05:31:17.802Z,71.04
2023-01-29T05:32:17.655Z,71.04
2023-01-29T05:33:17.731Z,71.04
2023-01-29T05:34:17.823Z,71.04
2023-01-29T05:35:17.898Z,70.94
2023-01-29T05:36:17.971Z,70.94
2023-01-29T05:37:18.051Z,70.94
2023-01-29T05:38:18.148Z,70.94
2023-01-29T05:39:18.243Z,70.94
2023-01-29T05:40:18.618Z,70.94
2023-01-29T05:41:18.360Z,70.94
2023-01-29T05:42:18.441Z,70.94
2023-01-29T05:43:18.619Z,70.94
2023-01-29T05:44:18.657Z,70.83
2023-01-29T05:45:18.693Z,70.73
2023-01-29T05:46:18.790Z,70.62
2023-01-29T05:47:18.867Z,70.52
2023-01-29T05:48:18.957Z,70.31
2023-01-29T05:49:19.099Z,70.20
2023-01-29T05:50:19.406Z,70.10
2023-01-29T05:51:19.197Z,70.00
2023-01-29T05:52:19.281Z,70.00
2023-01-29T05:53:19.390Z,70.10
2023-01-29T05:54:19.464Z,70.10
2023-01-29T05:55:19.621Z,70.10
2023-01-29T05:56:19.612Z,70.10
2023-01-29T05:57:19.848Z,70.00
2023-01-29T05:58:19.824Z,70.00
2023-01-29T05:59:19.874Z,70.10
2023-01-29T06:00:20.013Z,70.00
2023-01-29T06:01:20.087Z,69.89
2023-01-29T06:02:20.122Z,69.89
2023-01-29T06:03:20.208Z,69.89
2023-01-29T06:04:20.324Z,69.79
2023-01-29T06:05:20.409Z,69.79
2023-01-29T06:06:20.680Z,69.71
2023-01-29T06:07:20.560Z,69.71
2023-01-29T06:08:20.666Z,69.71
2023-01-29T06:09:20.759Z,69.82
2023-01-29T06:10:20.837Z,69.82
2023-01-29T06:11:20.933Z,69.82
2023-01-29T06:12:21.011Z,69.82
2023-01-29T06:13:23.554Z,69.82
2023-01-29T06:14:21.181Z,69.71
2023-01-29T06:15:21.227Z,69.71
2023-01-29T06:16:21.426Z,69.61
2023-01-29T06:17:21.677Z,69.61
2023-01-29T06:18:22.425Z,69.61
2023-01-29T06:19:21.588Z,69.51
2023-01-29T06:20:21.627Z,69.51
2023-01-29T06:21:21.719Z,69.51
2023-01-29T06:22:21.787Z,69.51
2023-01-29T06:23:21.872Z,69.40
2023-01-29T06:24:21.990Z,69.51
2023-01-29T06:25:22.042Z,69.54
2023-01-29T06:26:22.129Z,69.54
2023-01-29T06:27:22.211Z,69.64
2023-01-29T06:28:22.281Z,69.74
2023-01-29T06:29:22.575Z,69.85
2023-01-29T06:30:22.447Z,69.95
2023-01-29T06:31:37.447Z,70.06
2023-01-29T06:32:22.717Z,70.17
2023-01-29T06:33:22.772Z,70.27
2023-01-29T06:34:22.824Z,70.37
2023-01-29T06:35:22.943Z,70.48
2023-01-29T06:36:22.966Z,70.48
2023-01-29T06:37:23.073Z,70.45
2023-01-29T06:38:23.139Z,70.48
2023-01-29T06:39:23.242Z,70.45
2023-01-29T06:40:23.273Z,70.45
2023-01-29T06:41:23.398Z,70.45
2023-01-29T06:42:23.479Z,70.55
2023-01-29T06:43:23.546Z,70.55
2023-01-29T06:44:23.642Z,70.65
2023-01-29T06:45:23.769Z,70.65
2023-01-29T06:46:23.819Z,70.65
2023-01-29T06:47:23.919Z,70.65
2023-01-29T06:48:24.003Z,70.65
2023-01-29T06:49:24.106Z,70.65
2023-01-29T06:50:24.158Z,70.65
2023-01-29T06:51:25.220Z,70.65
2023-01-29T06:52:24.343Z,70.65
2023-01-29T06:53:25.216Z,70.65
2023-01-29T06:54:24.567Z,70.76
2023-01-29T06:55:24.603Z,70.65
2023-01-29T06:56:24.699Z,70.65
2023-01-29T06:57:24.798Z,70.65
2023-01-29T06:58:24.818Z,70.65
2023-01-29T06:59:24.928Z,70.65
2023-01-29T07:00:24.974Z,70.65
2023-01-29T07:01:35.706Z,70.65
2023-01-29T07:02:25.191Z,70.55
2023-01-29T07:03:25.248Z,70.55
2023-01-29T07:04:25.321Z,70.65
2023-01-29T07:05:25.411Z,70.65
2023-01-29T07:06:25.497Z,70.65
2023-01-29T07:07:25.594Z,70.65
2023-01-29T07:08:25.671Z,70.76
2023-01-29T07:09:25.788Z,70.65
2023-01-29T07:10:25.818Z,70.55
2023-01-29T07:11:25.935Z,70.55
2023-01-29T07:12:25.964Z,70.65
2023-01-29T07:13:26.051Z,70.65
2023-01-29T07:14:26.174Z,70.65
2023-01-29T07:15:26.220Z,70.55
2023-01-29T07:16:26.619Z,70.34
2023-01-29T07:17:26.387Z,70.34
2023-01-29T07:18:26.420Z,70.24
2023-01-29T07:19:26.543Z,70.13
2023-01-29T07:20:26.589Z,70.13
2023-01-29T07:21:26.687Z,70.13
2023-01-29T07:22:26.760Z,70.03
2023-01-29T07:23:26.828Z,70.13
2023-01-29T07:24:27.017Z,69.92
2023-01-29T07:25:26.988Z,69.92
2023-01-29T07:26:27.074Z,69.82
2023-01-29T07:27:27.143Z,69.82
2023-01-29T07:28:27.226Z,69.71
2023-01-29T07:29:27.310Z,69.40
2023-01-29T07:30:27.356Z,69.19
2023-01-29T07:31:27.548Z,69.19
2023-01-29T07:32:27.502Z,69.33
2023-01-29T07:33:27.574Z,69.43
2023-01-29T07:34:27.675Z,69.54
2023-01-29T07:35:27.746Z,69.43
2023-01-29T07:36:27.830Z,69.33
2023-01-29T07:37:27.895Z,69.12
2023-01-29T07:38:28.007Z,69.12
2023-01-29T07:39:28.110Z,69.22
2023-01-29T07:40:28.212Z,69.22
2023-01-29T07:41:28.237Z,69.01
2023-01-29T07:42:28.304Z,68.91
2023-01-29T07:43:28.385Z,69.01
2023-01-29T07:44:28.504Z,69.01
2023-01-29T07:45:28.642Z,69.01
2023-01-29T07:46:28.665Z,69.01
2023-01-29T07:47:28.725Z,68.91
2023-01-29T07:48:28.809Z,68.80
2023-01-29T07:49:28.925Z,68.80
2023-01-29T07:50:28.988Z,68.60
2023-01-29T07:51:29.035Z,68.28
2023-01-29T07:52:29.133Z,67.97
2023-01-29T07:53:29.213Z,67.97
2023-01-29T07:54:29.320Z,67.97
2023-01-29T07:55:29.410Z,68.07
2023-01-29T07:56:29.470Z,68.07
2023-01-29T07:57:29.560Z,68.07
2023-01-29T07:58:29.825Z,68.07
2023-01-29T07:59:29.778Z,67.97
2023-01-29T08:00:29.816Z,68.07
2023-01-29T08:01:29.965Z,68.07
2023-01-29T08:02:30.011Z,68.18
2023-01-29T08:03:30.074Z,68.28
2023-01-29T08:04:30.176Z,68.15
2023-01-29T08:05:30.253Z,68.04
2023-01-29T08:06:30.346Z,68.15
2023-01-29T08:07:30.438Z,68.25
2023-01-29T08:08:30.496Z,68.25
2023-01-29T08:09:30.595Z,68.25
2023-01-29T08:10:30.692Z,68.25
2023-01-29T08:11:30.746Z,68.35
2023-01-29T08:12:30.829Z,68.35
2023-01-29T08:13:30.910Z,68.46
2023-01-29T08:14:31.025Z,68.57
2023-01-29T08:15:31.067Z,68.46
2023-01-29T08:16:31.241Z,68.57
2023-01-29T08:17:31.207Z,68.67
2023-01-29T08:18:31.280Z,68.46
2023-01-29T08:19:31.387Z,68.25
2023-01-29T08:20:31.428Z,68.12
2023-01-29T08:21:31.503Z,68.12
2023-01-29T08:22:31.581Z,68.01
2023-01-29T08:23:31.683Z,68.12
2023-01-29T08:24:41.816Z,68.01
2023-01-29T08:25:31.924Z,68.01
2023-01-29T08:26:31.945Z,67.91
2023-01-29T08:27:32.027Z,67.91
2023-01-29T08:28:32.109Z,67.59
2023-01-29T08:29:32.208Z,67.38
2023-01-29T08:30:32.351Z,67.38
2023-01-29T08:31:32.423Z,67.28
2023-01-29T08:32:32.431Z,66.97
2023-01-29T08:33:39.001Z,66.97
2023-01-29T08:34:32.633Z,67.07
2023-01-29T08:35:32.628Z,66.97
2023-01-29T08:36:32.718Z,66.86
2023-01-29T08:37:32.798Z,66.34
2023-01-29T08:38:32.882Z,66.44
2023-01-29T08:39:34.417Z,66.24
2023-01-29T08:40:33.103Z,66.03
2023-01-29T08:41:33.112Z,66.03
2023-01-29T08:42:33.203Z,66.13
2023-01-29T11:58:36.957Z,66.00
2023-01-29T11:59:37.957Z,65.89
2023-01-29T12:08:13.916Z,66.00
2023-01-29T12:11:56.356Z,66.07
2023-01-29T12:12:57.253Z,66.07
2023-01-29T12:13:57.257Z,66.17
2023-01-29T12:14:57.399Z,66.28
2023-01-29T12:15:57.453Z,65.97
2023-01-29T12:16:57.534Z,65.52
2023-01-29T12:17:57.554Z,65.41
2023-01-29T12:50:59.516Z,65.58
2023-01-29T13:03:14.836Z,65.68
2023-01-29T14:54:04.364Z,67.63
2023-01-29T14:55:05.464Z,67.63
2023-01-29T14:56:05.638Z,67.74
2023-01-29T14:57:05.459Z,67.74
2023-01-29T14:58:05.648Z,67.74
2023-01-29T14:59:05.718Z,67.60
2023-01-29T15:00:05.740Z,67.50
2023-01-29T15:01:05.882Z,67.50
2023-01-29T15:02:06.015Z,67.40
2023-01-29T15:03:05.977Z,67.26
2023-01-29T15:04:06.070Z,67.26
2023-01-29T15:05:06.210Z,67.16
2023-01-29T15:06:06.251Z,67.16
2023-01-29T15:07:06.308Z,67.16
2023-01-29T15:08:06.352Z,67.13
2023-01-29T15:09:06.424Z,67.02
2023-01-29T15:10:21.931Z,66.92
2023-01-29T15:11:06.598Z,66.82
2023-01-29T15:12:06.636Z,66.82
2023-01-29T15:13:06.779Z,66.82
2023-01-29T15:14:06.874Z,66.71
2023-01-29T15:15:06.995Z,66.71
2023-01-29T15:16:07.140Z,66.60
2023-01-29T15:17:07.094Z,66.50
2023-01-29T15:18:07.185Z,66.50
2023-01-29T15:19:07.284Z,66.26
2023-01-29T15:20:07.481Z,66.19
2023-01-29T15:21:07.540Z,66.16
2023-01-29T15:22:07.594Z,66.16
2023-01-29T15:23:07.656Z,66.05
2023-01-29T15:24:07.726Z,66.16
2023-01-29T15:25:07.940Z,66.16
2023-01-29T15:26:07.870Z,66.16
2023-01-29T15:27:08.024Z,66.16
2023-01-29T15:28:08.048Z,66.05
2023-01-29T15:29:08.168Z,66.05
2023-01-29T15:30:08.315Z,65.95
2023-01-29T15:31:08.411Z,65.95
2023-01-29T15:32:08.377Z,65.95
2023-01-29T15:33:08.461Z,65.95
2023-01-29T15:34:08.524Z,65.95
2023-01-29T15:35:08.658Z,65.95
2023-01-29T15:36:08.966Z,65.95
2023-01-29T15:37:08.809Z,66.05
2023-01-29T15:38:08.884Z,65.95
2023-01-29T15:39:08.963Z,65.95
2023-01-29T15:40:09.071Z,65.95
2023-01-29T15:41:09.117Z,65.95
2023-01-29T15:42:09.202Z,65.95
2023-01-29T15:43:09.311Z,65.84
2023-01-29T15:44:09.425Z,65.84
2023-01-29T15:45:09.492Z,65.84
2023-01-29T15:46:09.582Z,65.84
2023-01-29T15:47:09.662Z,65.84
2023-01-29T15:48:09.792Z,65.84
2023-01-29T15:49:09.831Z,65.84
2023-01-29T15:50:09.932Z,65.95
2023-01-29T15:51:09.977Z,65.95
2023-01-29T15:52:10.059Z,65.95
2023-01-29T15:53:10.146Z,65.95
2023-01-29T15:54:10.229Z,65.95
2023-01-29T15:55:10.315Z,65.95
2023-01-29T15:56:10.415Z,65.95
2023-01-29T15:57:10.417Z,65.95
2023-01-29T15:58:10.531Z,65.95
2023-01-29T15:59:10.601Z,65.95
2023-01-29T16:00:10.753Z,65.95
2023-01-29T16:01:10.794Z,66.05
2023-01-29T16:02:10.899Z,65.95
2023-01-29T16:03:10.992Z,65.84
2023-01-29T16:04:11.033Z,65.74
2023-01-29T16:05:11.163Z,65.74
2023-01-29T16:06:11.210Z,65.74
2023-01-29T16:07:11.307Z,65.74
2023-01-29T16:08:11.402Z,65.64
2023-01-29T16:09:11.471Z,65.64
2023-01-29T16:10:11.571Z,65.53
2023-01-29T16:11:11.608Z,65.43
2023-01-29T16:12:11.698Z,65.33
2023-01-29T16:13:11.786Z,65.22
2023-01-29T16:14:11.880Z,65.33
2023-01-29T16:15:11.981Z,65.33
2023-01-29T16:16:12.187Z,65.33
2023-01-29T16:17:12.082Z,65.33
2023-01-29T16:18:12.162Z,65.11
2023-01-29T16:19:12.236Z,65.11
2023-01-29T16:20:12.340Z,65.22
2023-01-29T16:21:12.381Z,65.22
2023-01-29T16:22:12.469Z,65.25
2023-01-29T16:23:12.551Z,65.33
2023-01-29T16:24:12.711Z,65.33
2023-01-29T16:25:12.741Z,65.35
2023-01-29T16:26:12.926Z,65.35
2023-01-29T16:27:12.947Z,65.35
2023-01-29T16:28:12.984Z,65.25
2023-01-29T16:29:13.079Z,65.14
2023-01-29T16:47:27.793Z,66.72
2023-01-29T16:48:28.836Z,66.72
2023-01-29T16:49:28.903Z,66.91
2023-01-29T16:50:28.957Z,66.91
2023-01-29T16:51:29.050Z,66.91
2023-01-29T16:52:29.159Z,66.91
2023-01-29T16:53:29.229Z,66.91
2023-01-29T16:54:29.308Z,66.91
2023-01-29T16:55:29.385Z,66.88
2023-01-29T16:56:29.493Z,66.88
2023-01-29T16:57:29.537Z,66.88
2023-01-29T16:58:29.648Z,66.88
2023-01-29T16:59:29.737Z,66.88
2023-01-29T17:00:29.943Z,66.88
2023-01-29T17:01:29.989Z,66.88
2023-01-29T17:02:30.153Z,66.77
2023-01-29T17:03:30.138Z,66.77
2023-01-29T17:04:30.173Z,66.77
2023-01-29T17:05:30.263Z,66.77
2023-01-29T17:06:30.320Z,66.74
2023-01-29T17:07:30.406Z,66.63
2023-01-29T17:08:30.504Z,66.63
2023-01-29T17:09:30.572Z,66.63
2023-01-29T17:10:30.646Z,66.63
2023-01-29T17:18:57.865Z,67.01
2023-01-29T17:19:58.188Z,67.01
2023-01-29T17:20:58.262Z,67.11
2023-01-29T17:21:58.367Z,67.11
2023-01-29T17:22:58.469Z,67.01
2023-01-29T17:24:13.220Z,67.01
2023-01-29T17:24:58.562Z,67.01
2023-01-29T17:25:58.641Z,66.91
2023-01-29T17:26:58.778Z,66.91
2023-01-29T17:27:58.905Z,66.77
2023-01-29T17:28:58.941Z,66.66
2023-01-29T17:29:59.005Z,66.56
2023-01-29T17:45:52.462Z,67.38
2023-01-29T17:46:53.513Z,67.38
2023-01-29T17:47:54.126Z,67.49
2023-01-29T17:48:53.716Z,67.59
2023-01-29T17:49:53.735Z,67.56
2023-01-29T17:50:53.795Z,67.46
2023-01-29T17:51:53.885Z,67.46
2023-01-29T17:52:53.966Z,67.46
2023-01-29T17:53:54.059Z,67.35
2023-01-29T17:54:54.112Z,67.25
2023-01-29T17:55:54.206Z,67.14
2023-01-29T17:56:54.300Z,67.11
2023-01-29T17:57:54.375Z,67.01
2023-01-29T17:58:54.531Z,67.01
2023-01-29T17:59:54.614Z,67.01
2023-01-29T18:00:54.633Z,66.91
2023-01-29T18:01:54.733Z,66.91
2023-01-29T18:02:54.775Z,66.91
2023-01-29T18:03:54.931Z,66.80
2023-01-29T18:04:54.929Z,66.80
2023-01-29T18:05:55.053Z,66.80
2023-01-29T18:06:55.092Z,66.91
2023-01-29T18:07:55.187Z,66.91
2023-01-29T18:08:55.289Z,66.80
2023-01-29T18:09:55.339Z,66.80
2023-01-29T18:10:55.430Z,66.91
2023-01-29T18:11:55.527Z,66.80
2023-01-29T18:12:55.658Z,66.77
2023-01-29T18:13:55.707Z,66.77
2023-01-29T18:14:55.779Z,66.77
2023-01-29T18:15:55.936Z,66.77
2023-01-29T18:16:57.331Z,66.88
2023-01-29T18:17:56.013Z,66.77
2023-01-29T18:18:56.115Z,66.77
2023-01-29T18:19:56.190Z,66.66
2023-01-29T18:20:56.273Z,66.66
2023-01-29T18:21:56.366Z,66.66
2023-01-29T18:22:56.459Z,66.56
2023-01-29T18:23:56.575Z,66.35
2023-01-29T18:24:56.609Z,66.14
2023-01-29T18:25:56.708Z,66.04
2023-01-29T18:26:56.758Z,66.04
2023-01-29T18:27:56.859Z,66.17
2023-01-29T18:28:56.966Z,66.07
2023-01-29T18:30:00.032Z,66.07
2023-01-29T18:30:57.296Z,66.07
2023-01-29T18:31:57.224Z,65.97
2023-01-29T18:32:57.265Z,65.97
2023-01-29T18:33:57.378Z,65.97
2023-01-29T18:34:57.397Z,66.07
2023-01-29T18:35:57.474Z,66.07
2023-01-29T18:36:57.563Z,66.17
2023-01-29T18:37:57.663Z,66.17
2023-01-29T18:38:57.760Z,66.17
2023-01-29T18:39:57.809Z,66.07
2023-01-29T18:40:57.899Z,65.86
2023-01-29T18:41:57.998Z,65.65
2023-01-29T18:42:58.068Z,65.65
2023-01-29T18:43:58.203Z,65.65
2023-01-29T18:44:58.249Z,65.55
2023-01-29T18:45:58.432Z,65.44
2023-01-29T18:46:58.424Z,65.34
2023-01-29T18:47:58.506Z,65.23
2023-01-29T18:48:58.597Z,65.34
2023-01-29T18:49:58.689Z,65.34
2023-01-29T18:50:58.807Z,65.34
2023-01-29T18:51:58.870Z,65.44
2023-01-29T18:52:58.943Z,65.44
2023-01-29T18:53:59.040Z,65.44
2023-01-29T18:54:59.116Z,65.44
2023-01-29T18:55:59.238Z,65.44
2023-01-29T18:57:06.317Z,65.55
2023-01-29T18:58:26.332Z,65.55
2023-01-29T18:58:59.499Z,65.65
2023-01-29T18:59:59.585Z,65.65
2023-01-29T19:00:59.642Z,65.75
2023-01-29T19:01:59.716Z,65.75
2023-01-29T19:02:59.766Z,65.86
2023-01-29T19:03:59.864Z,65.86
2023-01-29T19:04:59.904Z,65.86
2023-01-29T19:05:59.993Z,65.97
2023-01-29T19:07:00.108Z,65.86
2023-01-29T19:08:00.163Z,65.86
2023-01-29T19:09:00.271Z,65.86
2023-01-29T19:10:00.354Z,65.86
2023-01-29T19:11:00.383Z,65.86
2023-01-29T19:12:00.463Z,65.86
2023-01-29T19:13:00.563Z,65.97
2023-01-29T19:14:00.669Z,65.97
2023-01-29T19:15:00.696Z,65.97
2023-01-29T19:16:00.777Z,65.97
2023-01-29T19:17:01.019Z,65.97
2023-01-29T19:18:00.953Z,66.00
2023-01-29T19:19:01.010Z,66.00
2023-01-29T19:20:01.110Z,66.00
2023-01-29T19:21:01.131Z,65.89
2023-01-29T19:22:01.258Z,66.00
2023-01-29T19:23:01.339Z,66.00
2023-01-29T19:24:01.446Z,66.00
2023-01-29T19:25:01.523Z,65.89
2023-01-29T19:26:01.587Z,65.89
2023-01-29T19:27:01.672Z,65.89
2023-01-29T19:28:01.752Z,66.00
2023-01-29T19:29:01.858Z,66.00
2023-01-29T19:30:01.934Z,66.00
2023-01-29T19:31:02.135Z,65.89
2023-01-29T19:32:02.080Z,65.89
2023-01-29T19:33:02.149Z,65.89
2023-01-29T19:34:02.273Z,65.89
2023-01-29T19:35:02.360Z,65.89
2023-01-29T19:36:02.502Z,65.89
2023-01-29T19:37:02.533Z,66.00
2023-01-29T19:38:02.625Z,66.10
2023-01-29T19:39:02.817Z,66.10
2023-01-29T19:40:02.820Z,66.20
2023-01-29T19:41:02.881Z,66.20
2023-01-29T19:42:02.966Z,66.20
2023-01-29T19:43:03.041Z,66.31
2023-01-29T19:44:03.184Z,66.31
2023-01-29T19:45:03.231Z,66.31
2023-01-29T19:46:03.309Z,66.20
2023-01-29T19:47:03.406Z,66.10
2023-01-29T19:48:03.489Z,66.10
2023-01-29T19:49:03.634Z,66.00
2023-01-29T19:50:03.655Z,65.89
2023-01-29T19:51:03.729Z,65.89
2023-01-29T19:52:03.835Z,65.78
2023-01-29T19:53:03.898Z,65.68
2023-01-29T19:54:04.009Z,65.68
2023-01-29T19:55:04.070Z,65.68
2023-01-29T19:56:04.160Z,65.68
2023-01-29T19:57:04.247Z,65.81
2023-01-29T19:58:04.312Z,65.92
2023-01-29T19:59:04.421Z,65.92
2023-01-29T20:00:04.486Z,66.13
2023-01-29T20:01:04.823Z,66.13
2023-01-29T20:02:04.760Z,66.24
2023-01-29T20:03:04.744Z,66.24
2023-01-29T20:04:04.834Z,66.34
2023-01-29T20:05:04.924Z,66.34
2023-01-29T20:06:05.061Z,66.34
2023-01-29T20:07:05.109Z,66.24
2023-01-29T20:08:05.187Z,66.24
2023-01-29T20:09:05.280Z,66.34
2023-01-29T20:10:05.354Z,66.44
2023-01-29T20:11:05.543Z,66.44
2023-01-29T20:12:05.510Z,66.55
2023-01-29T20:13:05.602Z,66.55
2023-01-29T20:14:05.676Z,66.55
2023-01-29T20:15:05.800Z,66.55
2023-01-29T20:16:05.859Z,66.65
2023-01-29T20:17:07.817Z,66.65
2023-01-29T20:18:06.030Z,66.55
2023-01-29T20:19:14.321Z,66.44
2023-01-29T20:20:06.738Z,66.44
2023-01-29T20:21:06.275Z,66.44
2023-01-29T20:22:06.364Z,66.55
2023-01-29T20:23:06.478Z,66.44
2023-01-29T20:24:06.561Z,66.44
2023-01-29T20:25:06.675Z,66.55
2023-01-29T20:26:06.760Z,66.55
2023-01-29T20:27:06.851Z,66.52
2023-01-29T20:28:06.954Z,66.55
2023-01-29T20:29:07.062Z,66.44
2023-01-29T20:30:07.121Z,66.41
2023-01-29T20:31:21.917Z,66.41
2023-01-29T20:32:07.284Z,66.41
2023-01-29T20:33:07.404Z,66.52
2023-01-29T20:34:07.500Z,66.52
2023-01-29T20:35:07.600Z,66.31
2023-01-29T20:36:07.669Z,66.20
2023-01-29T20:37:07.753Z,66.10
2023-01-29T20:38:07.810Z,66.10
2023-01-29T20:39:07.910Z,66.10
2023-01-29T20:40:07.989Z,65.50
2023-01-29T20:41:08.097Z,65.19
2023-01-29T20:42:08.182Z,65.30
2023-01-29T20:43:08.252Z,65.40
2023-01-29T20:44:08.343Z,65.50
2023-01-29T20:45:08.455Z,65.61
2023-01-29T20:46:08.563Z,65.61
2023-01-29T20:47:08.635Z,65.61
2023-01-29T20:48:08.680Z,65.61
2023-01-29T20:49:08.775Z,65.71
2023-01-29T20:50:08.874Z,65.81
2023-01-29T20:51:08.982Z,65.81
2023-01-29T20:52:09.052Z,65.84
2023-01-29T20:53:09.142Z,65.95
2023-01-29T20:54:09.224Z,65.95
2023-01-29T20:55:09.317Z,65.95
2023-01-29T20:56:09.380Z,65.95
2023-01-29T20:57:09.535Z,66.06
2023-01-29T20:58:09.528Z,66.06
2023-01-29T20:59:09.646Z,66.16
2023-01-29T21:00:09.871Z,66.16
2023-01-29T21:01:09.925Z,66.16
2023-01-29T21:02:10.124Z,66.27
2023-01-29T21:03:09.964Z,66.27
2023-01-29T21:04:10.042Z,66.37
2023-01-29T21:05:10.910Z,66.37
2023-01-29T21:06:10.215Z,66.37
2023-01-29T21:07:10.325Z,66.47
2023-01-29T21:08:10.402Z,66.47
2023-01-29T21:09:10.491Z,66.58
2023-01-29T21:10:10.567Z,66.58
2023-01-29T21:11:10.691Z,66.68
2023-01-29T21:12:10.768Z,66.68
2023-01-29T21:13:10.860Z,66.58
2023-01-29T21:14:10.942Z,66.58
2023-01-29T21:15:11.900Z,66.58
2023-01-29T21:16:11.238Z,66.47
2023-01-29T21:17:11.213Z,66.47
2023-01-29T21:18:11.293Z,66.47
2023-01-29T21:19:11.354Z,66.37
2023-01-29T21:20:11.443Z,66.37
2023-01-29T21:21:11.522Z,66.27
2023-01-29T21:22:11.583Z,66.27
2023-01-29T21:23:11.661Z,66.27
2023-01-29T21:24:11.737Z,66.27
2023-01-29T21:25:11.895Z,66.27
2023-01-29T21:26:11.923Z,66.27
2023-01-29T21:27:11.964Z,66.27
2023-01-29T21:28:12.027Z,66.37
2023-01-29T21:29:12.129Z,66.37
2023-01-29T21:30:12.310Z,66.27
2023-01-29T21:31:12.337Z,66.27
2023-01-29T21:32:12.416Z,66.37
2023-01-29T21:33:12.504Z,66.37
2023-01-29T21:34:12.573Z,66.37
2023-01-29T21:35:12.662Z,66.47
2023-01-29T21:36:12.751Z,66.47
2023-01-29T21:37:12.845Z,66.37
2023-01-29T21:38:12.925Z,66.37
2023-01-29T21:39:13.007Z,66.37